sensor_id;sensor_type;location;lat;lon;timestamp;P1;durP1;ratioP1;P2;durP2;ratioP2
18435;SDS011;9346;52.006;4.720;2023-01-28T00:00:56;11.13;;;4.60;;
18435;SDS011;9346;52.006;4.720;2023-01-28T00:03:25;11.60;;;4.77;;
18435;SDS011;9346;52.006;4.720;2023-01-28T00:06:00;9.43;;;5.00;;
18435;SDS011;9346;52.006;4.720;2023-01-28T00:08:28;9.90;;;5.13;;
18435;SDS011;9346;52.006;4.720;2023-01-28T00:10:57;9.07;;;5.03;;
18435;SDS011;9346;52.006;4.720;2023-01-28T00:13:24;13.30;;;5.50;;
18435;SDS011;9346;52.006;4.720;2023-01-28T00:15:53;7.53;;;4.13;;
18435;SDS011;9346;52.006;4.720;2023-01-28T00:18:23;9.00;;;4.60;;
18435;SDS011;9346;52.006;4.720;2023-01-28T00:20:57;8.20;;;4.47;;
18435;SDS011;9346;52.006;4.720;2023-01-28T00:23:25;5.67;;;3.67;;
18435;SDS011;9346;52.006;4.720;2023-01-28T00:25:56;6.57;;;4.33;;
18435;SDS011;9346;52.006;4.720;2023-01-28T00:28:24;6.77;;;3.70;;
18435;SDS011;9346;52.006;4.720;2023-01-28T00:30:51;10.20;;;4.90;;
18435;SDS011;9346;52.006;4.720;2023-01-28T00:33:21;10.47;;;4.77;;
18435;SDS011;9346;52.006;4.720;2023-01-28T00:35:56;8.83;;;4.27;;
18435;SDS011;9346;52.006;4.720;2023-01-28T00:38:24;10.00;;;5.20;;
18435;SDS011;9346;52.006;4.720;2023-01-28T00:40:51;6.93;;;3.83;;
18435;SDS011;9346;52.006;4.720;2023-01-28T00:43:18;10.33;;;4.70;;
18435;SDS011;9346;52.006;4.720;2023-01-28T00:45:45;9.20;;;4.10;;
18435;SDS011;9346;52.006;4.720;2023-01-28T00:48:12;8.47;;;4.63;;
18435;SDS011;9346;52.006;4.720;2023-01-28T00:50:42;7.30;;;3.57;;
18435;SDS011;9346;52.006;4.720;2023-01-28T00:53:10;10.77;;;5.23;;
18435;SDS011;9346;52.006;4.720;2023-01-28T00:55:38;8.50;;;4.33;;
18435;SDS011;9346;52.006;4.720;2023-01-28T00:58:05;8.37;;;4.47;;
18435;SDS011;9346;52.006;4.720;2023-01-28T01:00:32;8.40;;;4.70;;
18435;SDS011;9346;52.006;4.720;2023-01-28T01:03:00;12.30;;;5.07;;
18435;SDS011;9346;52.006;4.720;2023-01-28T01:05:27;8.33;;;3.97;;
18435;SDS011;9346;52.006;4.720;2023-01-28T01:07:59;9.83;;;4.60;;
18435;SDS011;9346;52.006;4.720;2023-01-28T01:10:26;11.97;;;4.33;;
18435;SDS011;9346;52.006;4.720;2023-01-28T01:12:54;6.83;;;3.97;;
18435;SDS011;9346;52.006;4.720;2023-01-28T01:15:22;11.97;;;5.80;;
18435;SDS011;9346;52.006;4.720;2023-01-28T01:17:49;9.90;;;4.70;;
18435;SDS011;9346;52.006;4.720;2023-01-28T01:20:17;10.73;;;5.17;;
18435;SDS011;9346;52.006;4.720;2023-01-28T01:22:46;7.93;;;4.47;;
18435;SDS011;9346;52.006;4.720;2023-01-28T01:25:16;8.50;;;4.47;;
18435;SDS011;9346;52.006;4.720;2023-01-28T01:27:44;8.00;;;4.17;;
18435;SDS011;9346;52.006;4.720;2023-01-28T01:30:14;7.17;;;4.23;;
18435;SDS011;9346;52.006;4.720;2023-01-28T01:32:42;10.10;;;4.87;;
18435;SDS011;9346;52.006;4.720;2023-01-28T01:35:09;7.43;;;4.63;;
18435;SDS011;9346;52.006;4.720;2023-01-28T01:37:37;11.67;;;5.03;;
18435;SDS011;9346;52.006;4.720;2023-01-28T01:40:04;10.43;;;4.63;;
18435;SDS011;9346;52.006;4.720;2023-01-28T01:42:35;8.07;;;4.27;;
18435;SDS011;9346;52.006;4.720;2023-01-28T01:45:02;10.40;;;4.70;;
18435;SDS011;9346;52.006;4.720;2023-01-28T01:47:33;8.83;;;4.43;;
18435;SDS011;9346;52.006;4.720;2023-01-28T01:50:07;10.13;;;4.83;;
18435;SDS011;9346;52.006;4.720;2023-01-28T01:52:42;10.03;;;4.47;;
18435;SDS011;9346;52.006;4.720;2023-01-28T01:55:11;7.33;;;4.33;;
18435;SDS011;9346;52.006;4.720;2023-01-28T01:57:44;8.57;;;4.80;;
18435;SDS011;9346;52.006;4.720;2023-01-28T02:00:13;6.50;;;4.67;;
18435;SDS011;9346;52.006;4.720;2023-01-28T02:02:42;9.77;;;3.97;;
18435;SDS011;9346;52.006;4.720;2023-01-28T02:05:12;9.07;;;4.97;;
18435;SDS011;9346;52.006;4.720;2023-01-28T02:07:41;9.47;;;3.63;;
18435;SDS011;9346;52.006;4.720;2023-01-28T02:10:10;11.50;;;4.83;;
18435;SDS011;9346;52.006;4.720;2023-01-28T02:12:39;8.30;;;4.70;;
18435;SDS011;9346;52.006;4.720;2023-01-28T02:15:11;9.63;;;4.67;;
18435;SDS011;9346;52.006;4.720;2023-01-28T02:17:42;13.57;;;5.30;;
18435;SDS011;9346;52.006;4.720;2023-01-28T02:20:10;9.17;;;4.40;;
18435;SDS011;9346;52.006;4.720;2023-01-28T02:28:53;7.33;;;4.83;;
18435;SDS011;9346;52.006;4.720;2023-01-28T02:31:27;8.70;;;4.80;;
18435;SDS011;9346;52.006;4.720;2023-01-28T02:34:01;10.50;;;4.93;;
18435;SDS011;9346;52.006;4.720;2023-01-28T02:36:38;10.93;;;5.23;;
18435;SDS011;9346;52.006;4.720;2023-01-28T02:39:11;11.17;;;5.03;;
18435;SDS011;9346;52.006;4.720;2023-01-28T02:41:43;10.47;;;4.73;;
18435;SDS011;9346;52.006;4.720;2023-01-28T02:44:16;9.80;;;5.23;;
18435;SDS011;9346;52.006;4.720;2023-01-28T02:46:43;9.20;;;5.33;;
18435;SDS011;9346;52.006;4.720;2023-01-28T02:49:27;11.87;;;4.50;;
18435;SDS011;9346;52.006;4.720;2023-01-28T02:55:10;11.50;;;5.37;;
18435;SDS011;9346;52.006;4.720;2023-01-28T02:57:46;8.33;;;4.30;;
18435;SDS011;9346;52.006;4.720;2023-01-28T03:00:27;14.67;;;5.33;;
18435;SDS011;9346;52.006;4.720;2023-01-28T03:02:59;10.50;;;5.73;;
18435;SDS011;9346;52.006;4.720;2023-01-28T03:05:34;11.43;;;4.80;;
18435;SDS011;9346;52.006;4.720;2023-01-28T03:08:05;9.23;;;4.97;;
18435;SDS011;9346;52.006;4.720;2023-01-28T03:10:46;8.40;;;4.67;;
18435;SDS011;9346;52.006;4.720;2023-01-28T03:13:31;10.00;;;5.20;;
18435;SDS011;9346;52.006;4.720;2023-01-28T03:16:17;9.57;;;4.87;;
18435;SDS011;9346;52.006;4.720;2023-01-28T03:19:01;9.10;;;5.23;;
18435;SDS011;9346;52.006;4.720;2023-01-28T03:21:45;11.60;;;5.27;;
18435;SDS011;9346;52.006;4.720;2023-01-28T03:24:32;8.50;;;5.03;;
18435;SDS011;9346;52.006;4.720;2023-01-28T03:27:21;9.67;;;4.30;;
18435;SDS011;9346;52.006;4.720;2023-01-28T03:30:11;10.23;;;4.57;;
18435;SDS011;9346;52.006;4.720;2023-01-28T03:32:59;5.70;;;3.00;;
18435;SDS011;9346;52.006;4.720;2023-01-28T03:35:45;7.20;;;3.13;;
18435;SDS011;9346;52.006;4.720;2023-01-28T03:38:32;5.20;;;3.20;;
18435;SDS011;9346;52.006;4.720;2023-01-28T03:41:06;4.50;;;2.80;;
18435;SDS011;9346;52.006;4.720;2023-01-28T03:43:36;4.77;;;3.13;;
18435;SDS011;9346;52.006;4.720;2023-01-28T03:46:03;6.23;;;3.17;;
18435;SDS011;9346;52.006;4.720;2023-01-28T03:48:33;5.77;;;3.17;;
18435;SDS011;9346;52.006;4.720;2023-01-28T03:51:00;6.17;;;3.27;;
18435;SDS011;9346;52.006;4.720;2023-01-28T03:53:28;4.00;;;3.13;;
18435;SDS011;9346;52.006;4.720;2023-01-28T03:55:55;4.73;;;2.50;;
18435;SDS011;9346;52.006;4.720;2023-01-28T03:58:23;5.23;;;2.97;;
18435;SDS011;9346;52.006;4.720;2023-01-28T04:01:04;4.87;;;2.77;;
18435;SDS011;9346;52.006;4.720;2023-01-28T04:03:33;3.97;;;2.80;;
18435;SDS011;9346;52.006;4.720;2023-01-28T04:06:01;4.13;;;2.70;;
18435;SDS011;9346;52.006;4.720;2023-01-28T04:08:31;5.47;;;2.60;;
18435;SDS011;9346;52.006;4.720;2023-01-28T04:10:58;3.83;;;2.53;;
18435;SDS011;9346;52.006;4.720;2023-01-28T04:13:39;6.43;;;3.43;;
18435;SDS011;9346;52.006;4.720;2023-01-28T04:16:07;4.60;;;3.10;;
18435;SDS011;9346;52.006;4.720;2023-01-28T04:18:36;5.13;;;3.07;;
18435;SDS011;9346;52.006;4.720;2023-01-28T04:21:04;4.97;;;2.70;;
18435;SDS011;9346;52.006;4.720;2023-01-28T04:23:31;5.97;;;2.43;;
18435;SDS011;9346;52.006;4.720;2023-01-28T04:25:59;5.87;;;2.90;;
18435;SDS011;9346;52.006;4.720;2023-01-28T04:28:26;11.23;;;2.93;;
18435;SDS011;9346;52.006;4.720;2023-01-28T04:30:53;6.33;;;3.27;;
18435;SDS011;9346;52.006;4.720;2023-01-28T04:33:20;3.17;;;2.40;;
18435;SDS011;9346;52.006;4.720;2023-01-28T04:35:49;6.67;;;2.87;;
18435;SDS011;9346;52.006;4.720;2023-01-28T04:38:17;5.07;;;3.03;;
18435;SDS011;9346;52.006;4.720;2023-01-28T04:40:47;5.90;;;3.20;;
18435;SDS011;9346;52.006;4.720;2023-01-28T04:43:15;4.43;;;2.87;;
18435;SDS011;9346;52.006;4.720;2023-01-28T04:45:45;5.73;;;2.80;;
18435;SDS011;9346;52.006;4.720;2023-01-28T04:48:13;2.97;;;2.27;;
18435;SDS011;9346;52.006;4.720;2023-01-28T04:50:41;5.87;;;2.67;;
18435;SDS011;9346;52.006;4.720;2023-01-28T04:53:11;5.37;;;2.80;;
18435;SDS011;9346;52.006;4.720;2023-01-28T04:55:39;3.97;;;2.37;;
18435;SDS011;9346;52.006;4.720;2023-01-28T04:58:06;4.73;;;2.90;;
18435;SDS011;9346;52.006;4.720;2023-01-28T05:00:34;6.50;;;2.70;;
18435;SDS011;9346;52.006;4.720;2023-01-28T05:03:01;4.77;;;2.83;;
18435;SDS011;9346;52.006;4.720;2023-01-28T05:05:28;8.30;;;2.87;;
18435;SDS011;9346;52.006;4.720;2023-01-28T05:07:56;7.40;;;3.27;;
18435;SDS011;9346;52.006;4.720;2023-01-28T05:10:26;9.13;;;3.43;;
18435;SDS011;9346;52.006;4.720;2023-01-28T05:12:54;3.27;;;1.93;;
18435;SDS011;9346;52.006;4.720;2023-01-28T05:15:21;4.90;;;2.63;;
18435;SDS011;9346;52.006;4.720;2023-01-28T05:17:49;4.40;;;2.83;;
18435;SDS011;9346;52.006;4.720;2023-01-28T05:20:16;3.13;;;2.23;;
18435;SDS011;9346;52.006;4.720;2023-01-28T05:22:43;3.60;;;2.83;;
18435;SDS011;9346;52.006;4.720;2023-01-28T05:25:11;4.03;;;2.70;;
18435;SDS011;9346;52.006;4.720;2023-01-28T05:27:41;6.47;;;2.90;;
18435;SDS011;9346;52.006;4.720;2023-01-28T05:30:08;4.70;;;2.73;;
18435;SDS011;9346;52.006;4.720;2023-01-28T05:32:36;4.57;;;2.53;;
18435;SDS011;9346;52.006;4.720;2023-01-28T05:35:04;4.23;;;2.77;;
18435;SDS011;9346;52.006;4.720;2023-01-28T05:37:32;4.30;;;2.40;;
18435;SDS011;9346;52.006;4.720;2023-01-28T05:39:59;7.00;;;3.40;;
18435;SDS011;9346;52.006;4.720;2023-01-28T05:42:26;6.87;;;2.80;;
18435;SDS011;9346;52.006;4.720;2023-01-28T05:44:55;5.73;;;2.93;;
18435;SDS011;9346;52.006;4.720;2023-01-28T05:47:22;5.83;;;2.73;;
18435;SDS011;9346;52.006;4.720;2023-01-28T05:49:50;5.80;;;2.43;;
18435;SDS011;9346;52.006;4.720;2023-01-28T05:52:17;9.07;;;3.73;;
18435;SDS011;9346;52.006;4.720;2023-01-28T05:54:44;3.53;;;2.27;;
18435;SDS011;9346;52.006;4.720;2023-01-28T05:57:11;6.60;;;3.10;;
18435;SDS011;9346;52.006;4.720;2023-01-28T05:59:38;4.40;;;2.77;;
18435;SDS011;9346;52.006;4.720;2023-01-28T06:02:08;4.23;;;2.50;;
18435;SDS011;9346;52.006;4.720;2023-01-28T06:04:35;5.63;;;3.03;;
18435;SDS011;9346;52.006;4.720;2023-01-28T06:07:03;5.30;;;2.43;;
18435;SDS011;9346;52.006;4.720;2023-01-28T06:09:30;4.97;;;3.40;;
18435;SDS011;9346;52.006;4.720;2023-01-28T06:11:57;3.40;;;2.43;;
18435;SDS011;9346;52.006;4.720;2023-01-28T06:14:25;5.93;;;3.30;;
18435;SDS011;9346;52.006;4.720;2023-01-28T06:16:52;4.50;;;2.77;;
18435;SDS011;9346;52.006;4.720;2023-01-28T06:19:21;5.27;;;2.40;;
18435;SDS011;9346;52.006;4.720;2023-01-28T06:21:48;5.03;;;2.87;;
18435;SDS011;9346;52.006;4.720;2023-01-28T06:24:15;5.83;;;2.60;;
18435;SDS011;9346;52.006;4.720;2023-01-28T06:26:43;4.90;;;3.03;;
18435;SDS011;9346;52.006;4.720;2023-01-28T06:29:10;8.40;;;3.23;;
18435;SDS011;9346;52.006;4.720;2023-01-28T06:31:38;6.03;;;2.77;;
18435;SDS011;9346;52.006;4.720;2023-01-28T06:34:05;7.30;;;2.97;;
18435;SDS011;9346;52.006;4.720;2023-01-28T06:36:34;3.50;;;2.33;;
18435;SDS011;9346;52.006;4.720;2023-01-28T06:39:03;5.57;;;3.43;;
18435;SDS011;9346;52.006;4.720;2023-01-28T06:41:30;5.97;;;3.00;;
18435;SDS011;9346;52.006;4.720;2023-01-28T06:43:57;5.90;;;3.07;;
18435;SDS011;9346;52.006;4.720;2023-01-28T06:46:26;5.67;;;2.80;;
18435;SDS011;9346;52.006;4.720;2023-01-28T06:48:56;3.40;;;2.40;;
18435;SDS011;9346;52.006;4.720;2023-01-28T06:51:23;3.93;;;2.53;;
18435;SDS011;9346;52.006;4.720;2023-01-28T06:53:52;9.20;;;3.10;;
18435;SDS011;9346;52.006;4.720;2023-01-28T06:56:19;7.93;;;3.20;;
18435;SDS011;9346;52.006;4.720;2023-01-28T06:58:46;5.53;;;3.00;;
18435;SDS011;9346;52.006;4.720;2023-01-28T07:01:14;4.60;;;2.77;;
18435;SDS011;9346;52.006;4.720;2023-01-28T07:03:40;4.37;;;2.80;;
18435;SDS011;9346;52.006;4.720;2023-01-28T07:06:08;5.13;;;2.90;;
18435;SDS011;9346;52.006;4.720;2023-01-28T07:08:35;4.60;;;2.60;;
18435;SDS011;9346;52.006;4.720;2023-01-28T07:11:06;5.30;;;2.90;;
18435;SDS011;9346;52.006;4.720;2023-01-28T07:13:34;6.33;;;3.20;;
18435;SDS011;9346;52.006;4.720;2023-01-28T07:16:01;4.33;;;2.67;;
18435;SDS011;9346;52.006;4.720;2023-01-28T07:18:28;4.97;;;3.17;;
18435;SDS011;9346;52.006;4.720;2023-01-28T07:20:55;5.47;;;2.97;;
18435;SDS011;9346;52.006;4.720;2023-01-28T07:23:22;4.43;;;2.43;;
18435;SDS011;9346;52.006;4.720;2023-01-28T07:25:50;7.80;;;2.57;;
18435;SDS011;9346;52.006;4.720;2023-01-28T07:28:19;5.57;;;2.67;;
18435;SDS011;9346;52.006;4.720;2023-01-28T07:30:47;4.50;;;2.87;;
18435;SDS011;9346;52.006;4.720;2023-01-28T07:33:14;5.60;;;3.23;;
18435;SDS011;9346;52.006;4.720;2023-01-28T07:35:42;4.97;;;2.80;;
18435;SDS011;9346;52.006;4.720;2023-01-28T07:38:09;7.43;;;3.47;;
18435;SDS011;9346;52.006;4.720;2023-01-28T07:40:37;7.07;;;3.43;;
18435;SDS011;9346;52.006;4.720;2023-01-28T07:43:04;6.83;;;3.27;;
18435;SDS011;9346;52.006;4.720;2023-01-28T07:45:34;4.30;;;3.17;;
18435;SDS011;9346;52.006;4.720;2023-01-28T07:48:02;5.97;;;3.00;;
18435;SDS011;9346;52.006;4.720;2023-01-28T07:50:32;4.70;;;3.00;;
18435;SDS011;9346;52.006;4.720;2023-01-28T07:53:01;5.10;;;3.10;;
18435;SDS011;9346;52.006;4.720;2023-01-28T07:55:28;6.20;;;3.87;;
18435;SDS011;9346;52.006;4.720;2023-01-28T07:57:56;5.97;;;2.93;;
18435;SDS011;9346;52.006;4.720;2023-01-28T08:00:28;5.33;;;3.43;;
18435;SDS011;9346;52.006;4.720;2023-01-28T08:02:59;6.67;;;3.03;;
18435;SDS011;9346;52.006;4.720;2023-01-28T08:05:30;6.47;;;3.23;;
18435;SDS011;9346;52.006;4.720;2023-01-28T08:08:05;8.80;;;3.17;;
18435;SDS011;9346;52.006;4.720;2023-01-28T08:10:33;6.97;;;4.07;;
18435;SDS011;9346;52.006;4.720;2023-01-28T08:13:00;8.23;;;4.10;;
18435;SDS011;9346;52.006;4.720;2023-01-28T08:15:28;10.63;;;3.60;;
18435;SDS011;9346;52.006;4.720;2023-01-28T08:17:56;4.60;;;3.37;;
18435;SDS011;9346;52.006;4.720;2023-01-28T08:20:26;8.40;;;3.17;;
18435;SDS011;9346;52.006;4.720;2023-01-28T08:23:03;6.00;;;3.50;;
18435;SDS011;9346;52.006;4.720;2023-01-28T08:25:31;7.10;;;4.20;;
18435;SDS011;9346;52.006;4.720;2023-01-28T08:27:59;10.37;;;3.20;;
18435;SDS011;9346;52.006;4.720;2023-01-28T08:30:26;6.97;;;4.33;;
18435;SDS011;9346;52.006;4.720;2023-01-28T08:32:54;5.33;;;3.33;;
18435;SDS011;9346;52.006;4.720;2023-01-28T08:35:22;8.03;;;3.27;;
18435;SDS011;9346;52.006;4.720;2023-01-28T08:37:52;4.53;;;3.17;;
18435;SDS011;9346;52.006;4.720;2023-01-28T08:40:20;8.53;;;3.13;;
18435;SDS011;9346;52.006;4.720;2023-01-28T08:42:48;7.27;;;3.87;;
18435;SDS011;9346;52.006;4.720;2023-01-28T08:45:16;6.70;;;3.77;;
18435;SDS011;9346;52.006;4.720;2023-01-28T08:47:46;8.37;;;4.17;;
18435;SDS011;9346;52.006;4.720;2023-01-28T08:50:14;6.80;;;3.60;;
18435;SDS011;9346;52.006;4.720;2023-01-28T08:52:43;8.87;;;4.07;;
18435;SDS011;9346;52.006;4.720;2023-01-28T08:55:12;9.63;;;3.50;;
18435;SDS011;9346;52.006;4.720;2023-01-28T08:57:39;5.97;;;3.80;;
18435;SDS011;9346;52.006;4.720;2023-01-28T09:00:10;8.00;;;3.93;;
18435;SDS011;9346;52.006;4.720;2023-01-28T09:02:38;6.37;;;3.57;;
18435;SDS011;9346;52.006;4.720;2023-01-28T09:05:05;7.37;;;4.47;;
18435;SDS011;9346;52.006;4.720;2023-01-28T09:07:33;7.37;;;4.67;;
18435;SDS011;9346;52.006;4.720;2023-01-28T09:10:02;8.03;;;4.50;;
18435;SDS011;9346;52.006;4.720;2023-01-28T09:12:32;8.20;;;4.03;;
18435;SDS011;9346;52.006;4.720;2023-01-28T09:14:59;7.07;;;3.90;;
18435;SDS011;9346;52.006;4.720;2023-01-28T09:17:26;6.50;;;3.87;;
18435;SDS011;9346;52.006;4.720;2023-01-28T09:19:54;7.77;;;3.53;;
18435;SDS011;9346;52.006;4.720;2023-01-28T09:22:23;7.33;;;3.23;;
18435;SDS011;9346;52.006;4.720;2023-01-28T09:24:52;6.70;;;4.17;;
18435;SDS011;9346;52.006;4.720;2023-01-28T09:27:20;7.80;;;4.10;;
18435;SDS011;9346;52.006;4.720;2023-01-28T09:29:49;8.17;;;4.40;;
18435;SDS011;9346;52.006;4.720;2023-01-28T09:32:16;7.13;;;3.40;;
18435;SDS011;9346;52.006;4.720;2023-01-28T09:34:43;6.50;;;3.33;;
18435;SDS011;9346;52.006;4.720;2023-01-28T09:37:10;7.47;;;4.33;;
18435;SDS011;9346;52.006;4.720;2023-01-28T09:39:38;5.70;;;3.27;;
18435;SDS011;9346;52.006;4.720;2023-01-28T09:42:14;8.17;;;4.93;;
18435;SDS011;9346;52.006;4.720;2023-01-28T09:45:01;8.57;;;3.70;;
18435;SDS011;9346;52.006;4.720;2023-01-28T09:47:41;7.13;;;3.37;;
18435;SDS011;9346;52.006;4.720;2023-01-28T09:50:11;5.03;;;3.23;;
18435;SDS011;9346;52.006;4.720;2023-01-28T09:52:44;5.67;;;3.20;;
18435;SDS011;9346;52.006;4.720;2023-01-28T09:55:14;5.47;;;3.73;;
18435;SDS011;9346;52.006;4.720;2023-01-28T09:57:46;7.13;;;3.73;;
18435;SDS011;9346;52.006;4.720;2023-01-28T10:00:20;8.00;;;3.87;;
18435;SDS011;9346;52.006;4.720;2023-01-28T10:02:54;7.33;;;3.53;;
18435;SDS011;9346;52.006;4.720;2023-01-28T10:05:34;6.30;;;3.53;;
18435;SDS011;9346;52.006;4.720;2023-01-28T10:08:14;6.03;;;3.33;;
18435;SDS011;9346;52.006;4.720;2023-01-28T10:10:54;5.50;;;3.40;;
18435;SDS011;9346;52.006;4.720;2023-01-28T10:13:30;5.03;;;3.13;;
18435;SDS011;9346;52.006;4.720;2023-01-28T10:16:11;5.33;;;3.30;;
18435;SDS011;9346;52.006;4.720;2023-01-28T10:18:45;5.23;;;3.40;;
18435;SDS011;9346;52.006;4.720;2023-01-28T10:21:19;6.87;;;3.70;;
18435;SDS011;9346;52.006;4.720;2023-01-28T10:23:55;7.00;;;3.50;;
18435;SDS011;9346;52.006;4.720;2023-01-28T10:26:28;4.60;;;2.70;;
18435;SDS011;9346;52.006;4.720;2023-01-28T10:29:02;6.40;;;3.67;;
18435;SDS011;9346;52.006;4.720;2023-01-28T10:31:38;6.03;;;2.90;;
18435;SDS011;9346;52.006;4.720;2023-01-28T10:34:10;7.73;;;3.40;;
18435;SDS011;9346;52.006;4.720;2023-01-28T10:36:37;6.23;;;3.07;;
18435;SDS011;9346;52.006;4.720;2023-01-28T10:39:05;7.37;;;4.13;;
18435;SDS011;9346;52.006;4.720;2023-01-28T10:41:33;5.33;;;3.13;;
18435;SDS011;9346;52.006;4.720;2023-01-28T10:44:00;9.23;;;3.27;;
18435;SDS011;9346;52.006;4.720;2023-01-28T10:46:27;4.93;;;3.20;;
18435;SDS011;9346;52.006;4.720;2023-01-28T10:49:01;5.43;;;3.70;;
18435;SDS011;9346;52.006;4.720;2023-01-28T10:51:38;6.40;;;3.73;;
18435;SDS011;9346;52.006;4.720;2023-01-28T10:54:17;6.87;;;2.97;;
18435;SDS011;9346;52.006;4.720;2023-01-28T10:56:45;9.53;;;3.80;;
18435;SDS011;9346;52.006;4.720;2023-01-28T10:59:18;9.57;;;3.20;;
18435;SDS011;9346;52.006;4.720;2023-01-28T11:01:48;7.27;;;3.33;;
18435;SDS011;9346;52.006;4.720;2023-01-28T11:04:21;4.57;;;2.90;;
18435;SDS011;9346;52.006;4.720;2023-01-28T11:06:57;7.10;;;3.33;;
18435;SDS011;9346;52.006;4.720;2023-01-28T11:09:27;6.53;;;3.80;;
18435;SDS011;9346;52.006;4.720;2023-01-28T11:11:55;6.40;;;2.97;;
18435;SDS011;9346;52.006;4.720;2023-01-28T11:14:24;9.73;;;4.10;;
18435;SDS011;9346;52.006;4.720;2023-01-28T11:16:53;5.67;;;3.30;;
18435;SDS011;9346;52.006;4.720;2023-01-28T11:19:26;9.53;;;3.80;;
18435;SDS011;9346;52.006;4.720;2023-01-28T11:21:56;5.90;;;3.23;;
18435;SDS011;9346;52.006;4.720;2023-01-28T11:24:25;6.70;;;3.93;;
18435;SDS011;9346;52.006;4.720;2023-01-28T11:26:55;6.87;;;3.83;;
18435;SDS011;9346;52.006;4.720;2023-01-28T11:29:25;7.67;;;3.93;;
18435;SDS011;9346;52.006;4.720;2023-01-28T11:31:57;10.40;;;3.23;;
18435;SDS011;9346;52.006;4.720;2023-01-28T11:34:33;6.40;;;2.83;;
18435;SDS011;9346;52.006;4.720;2023-01-28T11:37:02;6.40;;;3.23;;
18435;SDS011;9346;52.006;4.720;2023-01-28T11:39:37;7.53;;;3.90;;
18435;SDS011;9346;52.006;4.720;2023-01-28T11:42:11;9.07;;;4.03;;
18435;SDS011;9346;52.006;4.720;2023-01-28T11:44:41;6.20;;;3.60;;
18435;SDS011;9346;52.006;4.720;2023-01-28T11:47:18;6.23;;;3.57;;
18435;SDS011;9346;52.006;4.720;2023-01-28T11:50:00;7.70;;;4.00;;
18435;SDS011;9346;52.006;4.720;2023-01-28T11:52:44;5.13;;;3.10;;
18435;SDS011;9346;52.006;4.720;2023-01-28T11:55:34;4.13;;;2.97;;
18435;SDS011;9346;52.006;4.720;2023-01-28T11:58:07;8.23;;;3.93;;
18435;SDS011;9346;52.006;4.720;2023-01-28T12:00:46;15.80;;;3.83;;
18435;SDS011;9346;52.006;4.720;2023-01-28T12:06:23;5.23;;;3.03;;
18435;SDS011;9346;52.006;4.720;2023-01-28T12:09:04;7.60;;;4.00;;
18435;SDS011;9346;52.006;4.720;2023-01-28T12:11:43;5.67;;;3.63;;
18435;SDS011;9346;52.006;4.720;2023-01-28T12:17:31;5.10;;;3.10;;
18435;SDS011;9346;52.006;4.720;2023-01-28T12:20:13;5.47;;;3.07;;
18435;SDS011;9346;52.006;4.720;2023-01-28T12:23:01;6.17;;;3.50;;
18435;SDS011;9346;52.006;4.720;2023-01-28T12:25:48;7.40;;;3.60;;
18435;SDS011;9346;52.006;4.720;2023-01-28T12:28:31;9.57;;;3.50;;
18435;SDS011;9346;52.006;4.720;2023-01-28T12:31:19;7.30;;;2.80;;
18435;SDS011;9346;52.006;4.720;2023-01-28T12:34:14;6.20;;;2.93;;
18435;SDS011;9346;52.006;4.720;2023-01-28T12:37:11;4.27;;;2.57;;
18435;SDS011;9346;52.006;4.720;2023-01-28T12:39:52;4.70;;;2.53;;
18435;SDS011;9346;52.006;4.720;2023-01-28T12:42:32;3.27;;;2.37;;
18435;SDS011;9346;52.006;4.720;2023-01-28T12:45:04;7.70;;;3.73;;
18435;SDS011;9346;52.006;4.720;2023-01-28T12:47:42;8.53;;;3.60;;
18435;SDS011;9346;52.006;4.720;2023-01-28T12:50:17;5.87;;;3.30;;
18435;SDS011;9346;52.006;4.720;2023-01-28T12:52:48;7.30;;;4.30;;
18435;SDS011;9346;52.006;4.720;2023-01-28T12:55:25;5.83;;;3.57;;
18435;SDS011;9346;52.006;4.720;2023-01-28T12:58:04;6.20;;;3.53;;
18435;SDS011;9346;52.006;4.720;2023-01-28T13:00:33;11.43;;;3.73;;
18435;SDS011;9346;52.006;4.720;2023-01-28T13:03:05;5.60;;;3.40;;
18435;SDS011;9346;52.006;4.720;2023-01-28T13:05:40;5.10;;;3.27;;
18435;SDS011;9346;52.006;4.720;2023-01-28T13:08:12;5.00;;;3.63;;
18435;SDS011;9346;52.006;4.720;2023-01-28T13:10:48;8.80;;;4.20;;
18435;SDS011;9346;52.006;4.720;2023-01-28T13:13:27;6.63;;;3.80;;
18435;SDS011;9346;52.006;4.720;2023-01-28T13:15:57;7.57;;;3.67;;
18435;SDS011;9346;52.006;4.720;2023-01-28T13:18:30;7.53;;;3.93;;
18435;SDS011;9346;52.006;4.720;2023-01-28T13:21:01;7.60;;;3.60;;
18435;SDS011;9346;52.006;4.720;2023-01-28T13:23:36;4.20;;;2.80;;
18435;SDS011;9346;52.006;4.720;2023-01-28T13:26:24;6.03;;;3.10;;
18435;SDS011;9346;52.006;4.720;2023-01-28T13:29:05;5.03;;;2.77;;
18435;SDS011;9346;52.006;4.720;2023-01-28T13:31:37;7.37;;;3.63;;
18435;SDS011;9346;52.006;4.720;2023-01-28T13:34:06;5.17;;;3.27;;
18435;SDS011;9346;52.006;4.720;2023-01-28T13:36:42;6.67;;;2.90;;
18435;SDS011;9346;52.006;4.720;2023-01-28T13:39:14;8.67;;;4.53;;
18435;SDS011;9346;52.006;4.720;2023-01-28T13:41:49;4.57;;;3.20;;
18435;SDS011;9346;52.006;4.720;2023-01-28T13:44:19;8.47;;;3.57;;
18435;SDS011;9346;52.006;4.720;2023-01-28T13:46:48;7.73;;;3.90;;
18435;SDS011;9346;52.006;4.720;2023-01-28T13:49:17;3.90;;;2.30;;
18435;SDS011;9346;52.006;4.720;2023-01-28T13:51:55;5.50;;;3.53;;
18435;SDS011;9346;52.006;4.720;2023-01-28T13:54:27;7.47;;;3.40;;
18435;SDS011;9346;52.006;4.720;2023-01-28T13:57:02;4.30;;;2.77;;
18435;SDS011;9346;52.006;4.720;2023-01-28T13:59:45;6.33;;;3.67;;
18435;SDS011;9346;52.006;4.720;2023-01-28T14:02:22;6.27;;;3.17;;
18435;SDS011;9346;52.006;4.720;2023-01-28T14:05:07;6.07;;;2.50;;
18435;SDS011;9346;52.006;4.720;2023-01-28T14:10:59;4.87;;;2.90;;
18435;SDS011;9346;52.006;4.720;2023-01-28T14:13:56;5.57;;;3.57;;
18435;SDS011;9346;52.006;4.720;2023-01-28T14:16:46;8.50;;;3.57;;
18435;SDS011;9346;52.006;4.720;2023-01-28T14:19:18;5.63;;;2.87;;
18435;SDS011;9346;52.006;4.720;2023-01-28T14:21:51;6.27;;;3.53;;
18435;SDS011;9346;52.006;4.720;2023-01-28T14:24:19;5.47;;;3.43;;
18435;SDS011;9346;52.006;4.720;2023-01-28T14:26:49;7.03;;;3.57;;
18435;SDS011;9346;52.006;4.720;2023-01-28T14:29:45;6.43;;;3.07;;
18435;SDS011;9346;52.006;4.720;2023-01-28T14:32:20;8.10;;;3.63;;
18435;SDS011;9346;52.006;4.720;2023-01-28T14:34:52;6.27;;;3.30;;
18435;SDS011;9346;52.006;4.720;2023-01-28T14:37:21;14.03;;;2.87;;
18435;SDS011;9346;52.006;4.720;2023-01-28T14:39:54;7.63;;;3.30;;
18435;SDS011;9346;52.006;4.720;2023-01-28T14:42:24;5.60;;;3.67;;
18435;SDS011;9346;52.006;4.720;2023-01-28T14:45:00;5.47;;;3.37;;
18435;SDS011;9346;52.006;4.720;2023-01-28T14:47:41;11.30;;;3.17;;
18435;SDS011;9346;52.006;4.720;2023-01-28T14:50:35;16.87;;;3.90;;
18435;SDS011;9346;52.006;4.720;2023-01-28T14:56:39;7.20;;;3.60;;
18435;SDS011;9346;52.006;4.720;2023-01-28T14:59:20;8.77;;;4.53;;
18435;SDS011;9346;52.006;4.720;2023-01-28T15:01:56;6.60;;;3.23;;
18435;SDS011;9346;52.006;4.720;2023-01-28T15:04:25;5.43;;;2.63;;
18435;SDS011;9346;52.006;4.720;2023-01-28T15:06:54;7.83;;;4.07;;
18435;SDS011;9346;52.006;4.720;2023-01-28T15:09:23;14.03;;;4.03;;
18435;SDS011;9346;52.006;4.720;2023-01-28T15:11:51;3.93;;;2.57;;
18435;SDS011;9346;52.006;4.720;2023-01-28T15:14:24;6.03;;;3.33;;
18435;SDS011;9346;52.006;4.720;2023-01-28T15:16:55;6.07;;;3.27;;
18435;SDS011;9346;52.006;4.720;2023-01-28T15:19:25;7.73;;;4.30;;
18435;SDS011;9346;52.006;4.720;2023-01-28T15:21:54;6.40;;;3.63;;
18435;SDS011;9346;52.006;4.720;2023-01-28T15:24:23;7.27;;;3.87;;
18435;SDS011;9346;52.006;4.720;2023-01-28T15:26:50;8.53;;;3.93;;
18435;SDS011;9346;52.006;4.720;2023-01-28T15:29:25;7.20;;;3.87;;
18435;SDS011;9346;52.006;4.720;2023-01-28T15:31:59;7.20;;;4.00;;
18435;SDS011;9346;52.006;4.720;2023-01-28T15:34:28;8.87;;;4.50;;
18435;SDS011;9346;52.006;4.720;2023-01-28T15:36:56;10.20;;;4.40;;
18435;SDS011;9346;52.006;4.720;2023-01-28T15:39:24;7.47;;;3.80;;
18435;SDS011;9346;52.006;4.720;2023-01-28T15:41:53;10.73;;;3.87;;
18435;SDS011;9346;52.006;4.720;2023-01-28T15:44:24;7.63;;;4.27;;
18435;SDS011;9346;52.006;4.720;2023-01-28T15:46:55;10.13;;;4.43;;
18435;SDS011;9346;52.006;4.720;2023-01-28T15:49:24;8.17;;;4.13;;